createdAt,value
2018-05-16T00:01:17.518Z,77.65
2018-05-16T00:03:45.177Z,77.84
2018-05-16T00:06:12.748Z,78.39
2018-05-16T00:08:40.359Z,78.65
2018-05-16T00:11:07.902Z,78.47
2018-05-16T00:13:35.442Z,79.04
2018-05-16T00:16:03.077Z,79.43
2018-05-16T00:18:30.615Z,79.63
2018-05-16T00:20:58.180Z,79.81
2018-05-16T00:23:25.730Z,80.54
2018-05-16T00:25:53.328Z,81.15
2018-05-16T00:28:20.873Z,81.56
2018-05-16T00:30:48.471Z,81.17
2018-05-16T00:33:16.054Z,81.03
2018-05-16T00:35:43.606Z,80.62
2018-05-16T00:38:11.202Z,80.02
2018-05-16T00:40:38.947Z,79.78
2018-05-16T00:43:06.518Z,79.85
2018-05-16T00:45:34.077Z,79.65
2018-05-16T00:48:01.615Z,79.81
2018-05-16T00:50:29.149Z,80.72
2018-05-16T00:52:56.686Z,80.13
2018-05-16T00:55:24.209Z,80.50
2018-05-16T00:57:51.744Z,80.26
2018-05-16T01:00:19.431Z,79.60
2018-05-16T01:02:46.965Z,79.34
2018-05-16T01:05:14.655Z,79.06
2018-05-16T01:07:42.218Z,78.85
2018-05-16T01:10:09.745Z,78.79
2018-05-16T01:12:37.308Z,79.26
2018-05-16T01:15:05.887Z,79.12
2018-05-16T01:17:33.470Z,79.23
2018-05-16T01:20:00.992Z,79.21
2018-05-16T01:22:28.560Z,79.29
2018-05-16T01:24:56.265Z,79.23
2018-05-16T01:27:24.066Z,79.25
2018-05-16T01:29:51.649Z,78.71
2018-05-16T01:32:19.252Z,78.43
2018-05-16T01:34:46.783Z,78.84
2018-05-16T01:37:14.436Z,79.00
2018-05-16T01:39:41.992Z,79.38
2018-05-16T01:42:09.575Z,79.66
2018-05-16T01:44:37.253Z,79.78
2018-05-16T01:47:04.795Z,79.69
2018-05-16T01:49:32.329Z,80.25
2018-05-16T01:51:59.874Z,80.15
2018-05-16T01:54:27.441Z,80.05
2018-05-16T01:56:54.955Z,80.40
2018-05-16T01:59:22.505Z,81.06
2018-05-16T02:01:50.082Z,81.44
2018-05-16T02:04:17.646Z,82.03
2018-05-16T02:06:45.233Z,82.51
2018-05-16T02:09:12.785Z,82.51
2018-05-16T02:11:40.343Z,82.12
2018-05-16T02:14:07.941Z,82.11
2018-05-16T02:16:36.441Z,82.27
2018-05-16T02:19:03.984Z,82.86
2018-05-16T02:21:31.601Z,83.52
2018-05-16T02:23:59.820Z,83.78
2018-05-16T02:26:27.399Z,83.46
2018-05-16T02:28:54.918Z,83.53
2018-05-16T02:31:22.498Z,84.02
2018-05-16T02:33:50.048Z,83.70
2018-05-16T02:36:17.582Z,84.10
2018-05-16T02:38:45.239Z,84.06
2018-05-16T02:41:12.799Z,83.98
2018-05-16T02:43:40.336Z,83.92
2018-05-16T02:46:07.901Z,83.76
2018-05-16T02:48:35.457Z,84.54
2018-05-16T02:51:03.009Z,85.01
2018-05-16T02:53:30.575Z,85.00
2018-05-16T02:55:58.237Z,85.01
2018-05-16T02:58:25.816Z,85.44
2018-05-16T03:00:53.384Z,85.18
2018-05-16T03:03:21.007Z,85.30
2018-05-16T03:05:48.899Z,84.42
2018-05-16T03:08:16.513Z,84.34
2018-05-16T03:10:44.134Z,83.91
2018-05-16T03:13:11.696Z,83.78
2018-05-16T03:15:39.239Z,83.73
2018-05-16T03:18:06.791Z,84.01
2018-05-16T03:20:34.362Z,83.58
2018-05-16T03:23:01.930Z,83.88
2018-05-16T03:25:29.550Z,83.63
2018-05-16T03:27:57.347Z,83.62
2018-05-16T03:30:25.061Z,84.17
2018-05-16T03:32:52.612Z,83.93
2018-05-16T03:35:20.176Z,84.58
2018-05-16T03:37:47.709Z,84.50
2018-05-16T03:40:15.245Z,84.63
2018-05-16T03:42:42.815Z,85.08
2018-05-16T03:45:10.366Z,85.62
2018-05-16T03:47:37.896Z,85.44
2018-05-16T03:50:05.455Z,86.25
2018-05-16T03:52:33.016Z,86.04
2018-05-16T03:55:00.592Z,86.03
2018-05-16T03:57:40.162Z,85.89
2018-05-16T04:00:19.641Z,85.94
2018-05-16T04:02:58.997Z,86.79
2018-05-16T04:05:26.562Z,86.74
2018-05-16T04:07:54.092Z,85.57
2018-05-16T04:10:21.664Z,86.32
2018-05-16T04:12:49.236Z,85.39
2018-05-16T04:15:16.754Z,85.02
2018-05-16T04:17:44.306Z,85.54
2018-05-16T04:20:11.851Z,85.41
2018-05-16T04:22:39.378Z,85.71
2018-05-16T04:25:07.956Z,85.53
2018-05-16T04:27:35.526Z,85.77
2018-05-16T04:30:03.409Z,85.49
2018-05-16T04:32:31.031Z,85.86
2018-05-16T04:34:58.578Z,86.89
2018-05-16T04:37:26.164Z,87.01
2018-05-16T04:39:53.707Z,87.39
2018-05-16T04:42:21.328Z,87.27
2018-05-16T04:44:48.865Z,86.69
2018-05-16T04:47:16.419Z,87.03
2018-05-16T04:49:43.973Z,86.59
2018-05-16T04:52:11.525Z,87.40
2018-05-16T04:54:39.176Z,87.22
2018-05-16T04:57:06.954Z,86.57
2018-05-16T04:59:34.885Z,87.02
2018-05-16T05:02:02.432Z,86.88
2018-05-16T05:04:29.999Z,86.84
2018-05-16T05:06:57.524Z,87.77
2018-05-16T05:09:25.241Z,87.38
2018-05-16T05:11:52.860Z,87.17
2018-05-16T05:14:20.455Z,87.52
2018-05-16T05:16:48.012Z,86.54
2018-05-16T05:19:15.568Z,86.04
2018-05-16T05:21:43.247Z,86.90
2018-05-16T05:24:10.810Z,86.91
2018-05-16T05:26:38.367Z,86.23
2018-05-16T05:29:05.917Z,85.64
2018-05-16T05:31:33.636Z,85.94
2018-05-16T05:34:01.232Z,84.69
2018-05-16T05:36:28.804Z,84.68
2018-05-16T05:38:56.362Z,84.89
2018-05-16T05:41:24.708Z,84.81
2018-05-16T05:43:52.260Z,85.82
2018-05-16T05:46:19.790Z,85.50
2018-05-16T05:48:47.460Z,85.38
2018-05-16T05:51:14.999Z,85.57
2018-05-16T05:53:42.591Z,84.98
2018-05-16T05:56:10.267Z,85.24
2018-05-16T05:58:37.797Z,84.81
2018-05-16T06:01:05.337Z,84.75
2018-05-16T06:03:32.952Z,83.71
2018-05-16T06:06:00.530Z,84.07
2018-05-16T06:08:28.088Z,83.67
2018-05-16T06:10:55.650Z,84.06
2018-05-16T06:13:23.257Z,80.60
2018-05-16T06:15:50.886Z,81.43
2018-05-16T06:18:18.497Z,82.44
2018-05-16T06:20:47.051Z,80.07
2018-05-16T06:23:14.611Z,80.03
2018-05-16T06:25:42.174Z,80.93
2018-05-16T06:28:09.912Z,80.91
2018-05-16T06:30:37.578Z,82.19
2018-05-16T06:33:05.075Z,81.70
2018-05-16T06:35:32.633Z,81.30
2018-05-16T06:38:00.175Z,80.37
2018-05-16T06:40:28.835Z,82.15
2018-05-16T06:42:56.467Z,78.91
2018-05-16T06:45:24.039Z,78.12
2018-05-16T06:47:51.571Z,77.89
2018-05-16T06:50:19.180Z,77.87
2018-05-16T06:52:46.755Z,75.97
2018-05-16T06:55:14.368Z,75.30
2018-05-16T06:57:43.635Z,76.76
2018-05-16T07:00:11.185Z,74.07
2018-05-16T07:02:38.716Z,73.11
2018-05-16T07:05:06.263Z,75.27
2018-05-16T07:07:34.008Z,74.17
2018-05-16T07:10:01.593Z,73.60
2018-05-16T07:12:29.153Z,74.84
2018-05-16T07:14:57.136Z,74.04
2018-05-16T07:17:24.711Z,73.83
2018-05-16T07:19:52.293Z,73.48
2018-05-16T07:22:19.906Z,73.41
2018-05-16T07:24:47.541Z,75.03
2018-05-16T07:27:15.078Z,75.60
2018-05-16T07:29:43.544Z,76.14
2018-05-16T07:32:11.125Z,77.00
2018-05-16T07:34:38.679Z,77.78
2018-05-16T07:37:06.282Z,76.51
2018-05-16T07:39:33.798Z,77.27
2018-05-16T07:42:01.382Z,77.60
2018-05-16T07:44:29.080Z,76.96
2018-05-16T07:46:57.635Z,77.96
2018-05-16T07:49:25.181Z,78.14
2018-05-16T07:51:53.531Z,80.01
2018-05-16T07:54:21.090Z,80.47
2018-05-16T07:56:48.616Z,80.55
2018-05-16T07:59:16.204Z,81.95
2018-05-16T08:01:43.760Z,82.33
2018-05-16T08:04:11.325Z,83.77
2018-05-16T08:06:39.088Z,84.95
2018-05-16T08:09:06.641Z,86.27
2018-05-16T08:11:34.212Z,85.09
2018-05-16T08:14:01.763Z,84.78
2018-05-16T08:16:29.500Z,84.34
2018-05-16T08:18:57.048Z,84.33
2018-05-16T08:21:24.595Z,84.54
2018-05-16T08:23:52.128Z,83.37
2018-05-16T08:26:19.674Z,81.80
2018-05-16T08:28:47.368Z,80.91
2018-05-16T08:31:14.963Z,80.35
2018-05-16T08:33:42.673Z,78.70
2018-05-16T08:36:10.342Z,77.24
2018-05-16T08:38:37.850Z,76.54
2018-05-16T08:41:05.498Z,76.43
2018-05-16T08:43:33.207Z,77.10
2018-05-16T08:46:00.708Z,75.13
2018-05-16T08:48:28.242Z,74.50
2018-05-16T08:51:05.626Z,73.65
2018-05-16T08:53:33.145Z,74.14
2018-05-16T08:56:00.730Z,72.21
2018-05-16T08:58:28.313Z,73.02
2018-05-16T09:00:55.938Z,73.34
2018-05-16T09:03:23.444Z,74.66
2018-05-16T09:05:51.031Z,73.75
2018-05-16T09:08:19.647Z,74.10
2018-05-16T09:10:47.192Z,72.83
2018-05-16T09:13:14.897Z,73.64
2018-05-16T09:15:42.435Z,73.49
2018-05-16T09:18:09.983Z,74.35
2018-05-16T09:20:37.512Z,73.48
2018-05-16T09:23:05.048Z,70.74
2018-05-16T09:25:32.590Z,69.89
2018-05-16T09:28:00.125Z,69.70
2018-05-16T09:30:27.717Z,71.09
2018-05-16T09:32:55.258Z,68.36
2018-05-16T09:35:22.835Z,69.41
2018-05-16T09:37:50.540Z,70.88
2018-05-16T09:40:18.325Z,70.46
2018-05-16T09:42:45.831Z,69.75
2018-05-16T09:45:13.645Z,69.58
2018-05-16T09:47:41.161Z,69.95
2018-05-16T09:50:08.853Z,69.04
2018-05-16T09:52:36.393Z,70.39
2018-05-16T09:55:04.652Z,72.38
2018-05-16T09:57:32.184Z,69.56
2018-05-16T09:59:59.800Z,69.73
2018-05-16T10:02:27.327Z,68.95
2018-05-16T10:04:54.961Z,68.57
2018-05-16T10:07:22.685Z,67.12
2018-05-16T10:09:50.285Z,67.65
2018-05-16T10:12:18.213Z,69.24
2018-05-16T10:14:45.768Z,70.41
2018-05-16T10:17:13.353Z,71.62
2018-05-16T10:19:41.065Z,68.03
2018-05-16T10:22:08.646Z,68.09
2018-05-16T10:24:36.316Z,68.66
2018-05-16T10:27:04.187Z,68.27
2018-05-16T10:29:31.770Z,69.76
2018-05-16T10:31:59.508Z,70.50
2018-05-16T10:34:27.309Z,68.18
2018-05-16T10:36:55.021Z,68.83
2018-05-16T10:39:22.877Z,70.09
2018-05-16T10:41:50.299Z,69.98
2018-05-16T10:44:18.321Z,72.56
2018-05-16T10:46:45.856Z,71.45
2018-05-16T10:49:13.341Z,71.51
2018-05-16T10:51:40.910Z,72.34
2018-05-16T10:54:08.446Z,73.24
2018-05-16T10:56:36.034Z,73.18
2018-05-16T10:59:03.624Z,74.20
2018-05-16T11:01:31.196Z,75.07
2018-05-16T11:03:58.747Z,75.45
2018-05-16T11:06:26.293Z,75.18
2018-05-16T11:08:54.948Z,75.23
2018-05-16T11:11:22.609Z,77.07
2018-05-16T11:13:50.157Z,74.40
2018-05-16T11:16:17.719Z,75.07
2018-05-16T11:18:45.389Z,74.54
2018-05-16T11:21:13.665Z,75.50
2018-05-16T11:23:41.265Z,71.24
2018-05-16T11:26:08.797Z,68.61
2018-05-16T11:28:36.343Z,67.00
2018-05-16T11:31:03.945Z,65.30
2018-05-16T11:33:31.495Z,62.47
2018-05-16T11:35:59.101Z,60.99
2018-05-16T11:38:26.632Z,59.32
2018-05-16T11:40:54.179Z,58.75
2018-05-16T11:43:21.768Z,57.18
2018-05-16T11:45:49.924Z,58.38
2018-05-16T11:48:17.466Z,56.81
2018-05-16T11:50:45.062Z,54.63
2018-05-16T11:53:13.476Z,57.59
2018-05-16T11:55:41.002Z,55.05
2018-05-16T11:58:08.705Z,57.08
2018-05-16T12:00:36.857Z,61.94
2018-05-16T12:03:09.068Z,65.33
2018-05-16T12:05:41.782Z,68.92
2018-05-16T12:08:10.961Z,68.15
2018-05-16T12:10:50.209Z,73.14
2018-05-16T12:13:18.433Z,76.47
2018-05-16T12:15:46.060Z,76.17
2018-05-16T12:18:13.769Z,76.18
2018-05-16T12:20:41.633Z,76.29
2018-05-16T12:23:09.276Z,70.88
2018-05-16T12:25:36.800Z,70.45
2018-05-16T12:28:04.369Z,66.74
2018-05-16T12:30:32.487Z,64.57
2018-05-16T12:33:00.830Z,59.70
2018-05-16T12:35:30.256Z,53.06
2018-05-16T12:37:58.023Z,46.97
2018-05-16T12:40:25.797Z,48.39
2018-05-16T12:43:05.173Z,51.23
2018-05-16T12:45:33.391Z,53.75
2018-05-16T12:48:00.984Z,55.21
2018-05-16T12:50:28.922Z,57.13
2018-05-16T12:52:56.552Z,58.69
2018-05-16T12:55:24.340Z,57.99
2018-05-16T12:57:51.970Z,55.73
2018-05-16T13:00:19.740Z,54.86
2018-05-16T13:02:47.436Z,55.16
2018-05-16T13:05:15.214Z,44.87
2018-05-16T13:07:42.796Z,43.77
2018-05-16T13:10:10.537Z,40.45
2018-05-16T13:12:38.103Z,40.16
2018-05-16T13:15:05.629Z,43.28
2018-05-16T13:17:33.154Z,40.00
2018-05-16T13:20:00.678Z,41.78
2018-05-16T13:22:28.272Z,41.15
2018-05-16T13:24:56.356Z,36.73
2018-05-16T13:27:24.791Z,34.53
2018-05-16T13:29:52.835Z,38.35
2018-05-16T13:32:20.473Z,39.04
2018-05-16T13:34:48.021Z,41.24
2018-05-16T13:37:15.521Z,39.54
2018-05-16T13:39:43.044Z,43.07
2018-05-16T13:42:10.789Z,44.08
2018-05-16T13:44:38.338Z,41.82
2018-05-16T13:47:06.060Z,42.62
2018-05-16T13:49:33.724Z,44.09
2018-05-16T13:52:01.280Z,39.81
2018-05-16T13:54:28.847Z,40.07
2018-05-16T13:56:56.588Z,34.46
2018-05-16T13:59:24.828Z,32.31
2018-05-16T14:22:05.831Z,42.03
2018-05-16T14:24:54.895Z,47.52
2018-05-16T14:27:22.592Z,47.26
2018-05-16T14:29:50.123Z,55.11
2018-05-16T14:32:17.712Z,55.68
2018-05-16T14:34:45.223Z,57.43
2018-05-16T14:37:12.680Z,58.09
2018-05-16T14:39:40.132Z,59.92
2018-05-16T14:42:07.619Z,62.19
2018-05-16T14:44:35.082Z,64.38
2018-05-16T14:47:03.532Z,71.97
2018-05-16T14:49:31.065Z,76.19
2018-05-16T14:51:58.515Z,79.85
2018-05-16T14:54:26.848Z,81.38
2018-05-16T14:56:54.325Z,79.89
2018-05-16T14:59:21.800Z,81.89
2018-05-16T15:01:49.308Z,82.11
2018-05-16T15:04:23.407Z,80.16
2018-05-16T15:06:50.905Z,80.25
2018-05-16T15:09:21.486Z,78.67
2018-05-16T15:11:49.083Z,78.31
2018-05-16T15:17:07.651Z,80.88
2018-05-16T15:19:35.214Z,80.65
2018-05-16T15:22:02.994Z,81.39
2018-05-16T15:24:30.483Z,79.09
2018-05-16T15:26:57.953Z,77.72
2018-05-16T15:29:25.435Z,74.96
2018-05-16T15:31:53.144Z,77.72
2018-05-16T15:57:11.240Z,67.73
2018-05-16T15:59:38.704Z,66.50
2018-05-16T16:02:06.259Z,66.10
2018-05-16T16:04:33.737Z,67.27
2018-05-16T16:07:01.205Z,68.61
2018-05-16T16:09:28.649Z,71.67
2018-05-16T16:11:56.178Z,71.99
2018-05-16T16:14:23.666Z,71.67
2018-05-16T16:16:51.672Z,70.34
2018-05-16T16:19:19.123Z,70.34
2018-05-16T16:21:46.628Z,71.36
2018-05-16T16:44:20.149Z,67.00
2018-05-16T16:49:38.262Z,59.12
2018-05-16T17:00:38.569Z,56.00
2018-05-16T17:08:47.955Z,65.72
2018-05-16T17:11:15.428Z,65.82
2018-05-16T17:13:42.906Z,66.80
2018-05-16T17:16:10.422Z,67.91
2018-05-16T17:18:37.886Z,67.38
2018-05-16T17:26:47.149Z,70.38
2018-05-16T17:49:09.648Z,75.96
2018-05-16T17:51:39.000Z,77.00
2018-05-16T18:05:29.224Z,77.29
2018-05-16T18:07:56.712Z,78.32
2018-05-16T18:16:17.349Z,79.91
2018-05-16T18:18:44.924Z,80.11
2018-05-16T18:21:12.415Z,81.22
2018-05-16T18:23:39.911Z,80.67
2018-05-16T18:26:07.368Z,81.04
2018-05-16T18:31:25.604Z,79.83
2018-05-16T18:33:53.062Z,79.60
2018-05-16T18:36:20.524Z,79.76
2018-05-16T18:50:12.711Z,81.58
2018-05-16T18:52:40.157Z,81.88
2018-05-16T18:55:07.701Z,82.40
2018-05-16T18:57:35.169Z,82.81
2018-05-16T19:00:02.713Z,83.31
2018-05-16T19:02:30.391Z,83.45
2018-05-16T19:04:57.844Z,83.78
2018-05-16T19:07:25.302Z,83.57
2018-05-16T19:09:52.761Z,83.65
2018-05-16T19:12:20.219Z,83.61
2018-05-16T19:14:47.699Z,83.72
2018-05-16T19:17:15.152Z,83.83
2018-05-16T19:25:23.615Z,85.10
2018-05-16T19:27:51.120Z,85.34
2018-05-16T19:30:18.691Z,85.68
2018-05-16T19:32:46.163Z,85.88
2018-05-16T19:35:13.628Z,86.17
2018-05-16T19:37:41.095Z,86.38
2018-05-16T19:40:08.575Z,86.62
2018-05-16T19:42:36.141Z,86.92
2018-05-16T19:45:03.686Z,86.92
2018-05-16T19:47:31.151Z,86.83
2018-05-16T19:49:58.669Z,87.00
2018-05-16T19:52:26.395Z,86.65
2018-05-16T19:54:53.969Z,86.26
2018-05-16T19:57:21.430Z,86.15
2018-05-16T19:59:48.943Z,86.08
2018-05-16T20:02:16.475Z,86.57
2018-05-16T20:04:43.979Z,86.73
2018-05-16T20:07:11.489Z,87.35
2018-05-16T20:09:39.053Z,87.45
2018-05-16T20:12:06.593Z,87.79
2018-05-16T20:14:34.196Z,88.22
2018-05-16T20:17:01.635Z,88.32
2018-05-16T20:19:29.215Z,88.37
2018-05-16T20:21:56.708Z,89.13
2018-05-16T20:24:24.192Z,89.42
2018-05-16T20:26:51.667Z,89.78
2018-05-16T20:29:19.322Z,90.39
2018-05-16T20:31:46.794Z,90.88
2018-05-16T20:34:14.287Z,91.10
2018-05-16T20:36:41.740Z,91.08
2018-05-16T20:39:09.318Z,91.33
2018-05-16T20:41:36.797Z,91.34
2018-05-16T20:44:04.280Z,91.21
2018-05-16T20:46:31.742Z,90.95
2018-05-16T20:48:59.233Z,90.82
2018-05-16T20:51:26.863Z,90.64
2018-05-16T20:53:54.337Z,90.68
2018-05-16T20:56:21.913Z,90.42
2018-05-16T20:58:49.458Z,90.32
2018-05-16T21:01:16.898Z,90.12
2018-05-16T21:03:44.368Z,89.61
2018-05-16T21:06:11.856Z,89.42
2018-05-16T22:03:09.039Z,88.49
2018-05-16T22:05:36.510Z,88.59
2018-05-16T22:08:04.015Z,89.23
2018-05-16T22:10:31.555Z,89.42
2018-05-16T22:15:50.503Z,89.33
2018-05-16T22:18:17.971Z,89.27
2018-05-16T22:20:45.437Z,89.25
2018-05-16T22:23:12.919Z,89.12
2018-05-16T22:25:40.426Z,88.93
2018-05-16T22:28:07.887Z,88.79
2018-05-16T22:33:31.380Z,88.63
2018-05-16T22:36:04.493Z,88.99
2018-05-16T22:38:37.556Z,88.67
2018-05-16T22:41:10.672Z,88.38
2018-05-16T22:43:38.512Z,88.33
2018-05-16T22:46:05.973Z,88.12
2018-05-16T22:48:33.440Z,87.51
2018-05-16T22:51:00.908Z,87.67
2018-05-16T22:53:28.367Z,87.83
2018-05-16T22:55:55.868Z,87.97
2018-05-16T22:58:26.226Z,87.99
2018-05-16T23:00:53.702Z,88.03
2018-05-16T23:03:21.208Z,87.93
2018-05-16T23:08:39.075Z,87.82
2018-05-16T23:19:40.888Z,88.25
2018-05-16T23:22:08.375Z,88.21
2018-05-16T23:24:35.834Z,88.33
2018-05-16T23:27:03.306Z,88.36
2018-05-16T23:29:30.764Z,88.27
2018-05-16T23:31:58.263Z,87.98
2018-05-16T23:34:25.723Z,87.65
2018-05-16T23:36:53.187Z,87.53
2018-05-16T23:59:19.956Z,87.13
